createdAt,value
2023-04-25T00:01:01.603Z,3.20
2023-04-25T00:04:30.826Z,4.10
2023-04-25T00:07:59.215Z,9.10
2023-04-25T00:11:26.518Z,5.20
2023-04-25T00:14:53.927Z,5.00
2023-04-25T00:18:21.064Z,4.60
2023-04-25T00:21:47.956Z,4.40
2023-04-25T00:25:14.707Z,5.00
2023-04-25T00:28:41.899Z,4.90
2023-04-25T00:32:09.076Z,5.00
2023-04-25T00:35:36.387Z,4.30
2023-04-25T00:39:04.171Z,5.20
2023-04-25T00:42:33.132Z,4.30
2023-04-25T00:46:02.051Z,4.30
2023-04-25T00:49:28.947Z,5.70
2023-04-25T00:52:56.306Z,5.00
2023-04-25T00:56:23.278Z,4.90
2023-04-25T00:59:50.276Z,4.90
2023-04-25T01:03:18.345Z,3.90
2023-04-25T01:06:46.074Z,5.50
2023-04-25T01:10:13.353Z,3.20
2023-04-25T01:13:40.140Z,4.90
2023-04-25T01:17:08.799Z,4.90
2023-04-25T01:20:36.403Z,3.80
2023-04-25T01:24:03.775Z,5.30
2023-04-25T01:27:31.568Z,3.70
2023-04-25T01:30:59.052Z,4.60
2023-04-25T01:34:26.436Z,6.20
2023-04-25T01:37:53.760Z,3.80
2023-04-25T01:41:21.008Z,5.50
2023-04-25T01:44:48.067Z,3.60
2023-04-25T01:48:16.302Z,4.00
2023-04-25T01:51:44.617Z,6.60
2023-04-25T01:55:12.979Z,10.10
2023-04-25T01:58:46.906Z,3.80
2023-04-25T02:02:39.303Z,5.40
2023-04-25T02:06:13.468Z,4.60
2023-04-25T02:09:44.006Z,5.40
2023-04-25T02:13:12.711Z,5.10
2023-04-25T02:17:02.714Z,7.00
2023-04-25T02:20:32.572Z,7.40
2023-04-25T02:23:59.726Z,6.60
2023-04-25T02:27:29.009Z,9.00
2023-04-25T02:30:57.179Z,6.10
2023-04-25T02:34:24.741Z,7.50
2023-04-25T02:37:51.586Z,9.40
2023-04-25T02:41:18.871Z,4.90
2023-04-25T02:44:45.924Z,5.80
2023-04-25T02:48:13.200Z,10.60
2023-04-25T02:51:40.219Z,7.90
2023-04-25T02:55:08.409Z,6.40
2023-04-25T02:58:35.676Z,8.50
2023-04-25T03:02:02.711Z,6.50
2023-04-25T03:05:30.114Z,6.80
2023-04-25T03:08:56.975Z,7.00
2023-04-25T03:12:24.211Z,7.50
2023-04-25T03:15:51.430Z,7.60
2023-04-25T03:19:19.725Z,6.30
2023-04-25T03:22:46.724Z,7.40
2023-04-25T03:26:13.686Z,7.60
2023-04-25T03:29:41.513Z,10.40
2023-04-25T03:33:10.083Z,8.70
2023-04-25T03:36:38.282Z,9.20
2023-04-25T03:40:10.060Z,8.30
2023-04-25T03:43:57.096Z,8.00
2023-04-25T03:47:24.263Z,8.40
2023-04-25T03:50:52.885Z,11.20
2023-04-25T03:54:19.984Z,10.90
2023-04-25T03:57:54.914Z,9.70
2023-04-25T04:01:23.065Z,10.60
2023-04-25T04:04:50.482Z,14.20
2023-04-25T04:08:18.002Z,10.80
2023-04-25T04:11:45.029Z,14.50
2023-04-25T04:15:13.496Z,11.50
2023-04-25T04:18:40.912Z,10.30
2023-04-25T04:22:08.596Z,15.80
2023-04-25T04:25:36.515Z,9.70
2023-04-25T04:29:26.171Z,7.90
2023-04-25T04:33:04.536Z,10.40
2023-04-25T04:36:32.084Z,10.40
2023-04-25T04:39:59.506Z,12.10
2023-04-25T04:43:46.529Z,10.00
2023-04-25T04:47:33.753Z,6.30
2023-04-25T04:51:23.528Z,8.80
2023-04-25T04:55:23.170Z,8.80
2023-04-25T04:59:19.283Z,7.60
2023-04-25T05:03:07.809Z,6.20
2023-04-25T05:06:55.254Z,7.10
2023-04-25T05:10:46.822Z,6.20
2023-04-25T05:14:40.129Z,7.60
2023-04-25T05:18:26.936Z,5.40
2023-04-25T05:22:13.086Z,4.90
2023-04-25T05:25:54.021Z,4.40
2023-04-25T05:29:34.628Z,9.00
2023-04-25T05:33:09.032Z,6.30
2023-04-25T05:36:35.872Z,6.30
2023-04-25T05:40:03.058Z,5.50
2023-04-25T05:43:49.934Z,8.50
2023-04-25T05:47:40.498Z,4.80
2023-04-25T05:51:13.328Z,7.40
2023-04-25T05:54:40.192Z,5.40
2023-04-25T05:58:07.947Z,5.00
2023-04-25T06:01:36.116Z,5.70
2023-04-25T06:05:05.194Z,6.20
2023-04-25T06:08:32.341Z,5.20
2023-04-25T06:11:59.296Z,7.40
2023-04-25T06:15:28.595Z,7.20
2023-04-25T06:18:56.221Z,5.50
2023-04-25T06:22:23.234Z,7.80
2023-04-25T06:25:51.314Z,8.90
2023-04-25T06:29:18.156Z,8.30
2023-04-25T06:32:45.595Z,5.90
2023-04-25T06:36:12.888Z,9.50
2023-04-25T06:39:41.479Z,10.00
2023-04-25T06:43:08.638Z,6.60
2023-04-25T06:46:54.575Z,8.20
2023-04-25T06:50:21.654Z,8.20
2023-04-25T06:53:48.806Z,7.80
2023-04-25T06:57:24.533Z,13.70
2023-04-25T07:00:52.477Z,10.20
2023-04-25T07:04:21.800Z,8.20
2023-04-25T07:07:55.514Z,11.70
2023-04-25T07:11:22.624Z,7.20
2023-04-25T07:14:49.742Z,8.10
2023-04-25T07:18:17.455Z,9.10
2023-04-25T07:21:44.917Z,8.60
2023-04-25T07:25:13.621Z,9.10
2023-04-25T07:28:42.409Z,6.60
2023-04-25T07:32:09.841Z,7.10
2023-04-25T07:35:37.233Z,7.60
2023-04-25T07:39:04.607Z,7.40
2023-04-25T07:42:31.743Z,7.10
2023-04-25T07:46:01.419Z,8.60
2023-04-25T07:49:32.238Z,6.60
2023-04-25T07:53:01.269Z,8.70
2023-04-25T07:56:52.536Z,10.80
2023-04-25T08:00:25.052Z,7.00
2023-04-25T08:03:55.020Z,7.30
2023-04-25T08:07:31.171Z,8.00
2023-04-25T08:11:02.680Z,6.50
2023-04-25T08:14:38.412Z,7.00
2023-04-25T08:18:08.633Z,8.70
2023-04-25T08:25:08.360Z,8.30
2023-04-25T08:32:04.277Z,6.80
2023-04-25T08:35:34.082Z,7.20
2023-04-25T08:39:02.841Z,5.10
2023-04-25T08:42:33.364Z,5.90
2023-04-25T08:46:03.649Z,7.00
2023-04-25T08:49:47.175Z,6.10
2023-04-25T08:53:19.834Z,11.20
2023-04-25T08:56:49.543Z,7.30
2023-04-25T09:00:17.874Z,8.40
2023-04-25T09:03:45.761Z,7.70
2023-04-25T09:07:13.262Z,17.70
2023-04-25T09:10:41.101Z,5.30
2023-04-25T09:14:19.158Z,8.70
2023-04-25T09:18:07.528Z,7.50
2023-04-25T09:21:38.578Z,6.20
2023-04-25T09:25:10.548Z,5.40
2023-04-25T09:28:39.030Z,7.90
2023-04-25T09:32:17.282Z,5.10
2023-04-25T09:35:47.159Z,5.60
2023-04-25T09:39:22.504Z,8.10
2023-04-25T09:43:00.205Z,6.10
2023-04-25T09:46:27.735Z,7.00
2023-04-25T09:49:57.239Z,7.50
2023-04-25T09:53:24.438Z,5.60
2023-04-25T09:57:12.500Z,9.60
2023-04-25T10:00:40.608Z,5.00
2023-04-25T10:04:14.916Z,3.90
2023-04-25T10:08:04.075Z,6.40
2023-04-25T10:11:32.734Z,7.50
2023-04-25T10:15:01.382Z,12.40
2023-04-25T10:18:29.755Z,10.30
2023-04-25T10:22:04.613Z,14.60
2023-04-25T10:25:31.951Z,13.30
2023-04-25T10:29:03.521Z,26.20
2023-04-25T10:32:31.267Z,21.90
2023-04-25T10:36:10.564Z,33.50
2023-04-25T10:39:37.447Z,15.50
2023-04-25T10:43:34.406Z,11.50
2023-04-25T10:47:02.510Z,6.10
2023-04-25T10:50:41.462Z,22.90
2023-04-25T10:54:10.069Z,33.00
2023-04-25T10:57:43.469Z,29.30
2023-04-25T11:01:10.912Z,15.60
2023-04-25T11:04:40.017Z,12.50
2023-04-25T11:08:15.099Z,6.20
2023-04-25T11:11:42.359Z,8.80
2023-04-25T11:15:11.559Z,5.20
2023-04-25T11:18:39.306Z,6.00
2023-04-25T11:22:07.911Z,6.10
2023-04-25T11:25:37.747Z,4.80
2023-04-25T11:29:05.681Z,4.40
2023-04-25T11:32:32.640Z,5.40
2023-04-25T11:36:00.534Z,6.20
2023-04-25T11:39:30.359Z,6.00
2023-04-25T11:46:24.310Z,6.50
2023-04-25T11:49:57.100Z,6.20
2023-04-25T11:53:25.865Z,9.30
2023-04-25T11:56:53.500Z,10.00
2023-04-25T12:00:24.097Z,13.60
2023-04-25T12:03:52.040Z,61.80
2023-04-25T12:07:22.772Z,33.30
2023-04-25T12:10:50.648Z,17.70
2023-04-25T12:14:25.492Z,18.00
2023-04-25T12:17:54.925Z,5.20
2023-04-25T12:24:52.631Z,12.30
2023-04-25T12:28:21.747Z,5.40
2023-04-25T12:31:49.032Z,4.10
2023-04-25T12:35:17.039Z,5.70
2023-04-25T12:38:45.092Z,3.60
2023-04-25T12:42:13.388Z,3.60
2023-04-25T12:45:41.187Z,6.20
2023-04-25T12:49:18.748Z,3.90
2023-04-25T12:52:46.365Z,4.80
2023-04-25T12:56:13.549Z,4.50
2023-04-25T12:59:41.078Z,5.10
2023-04-25T13:03:08.596Z,3.60
2023-04-25T13:06:35.957Z,4.50
2023-04-25T13:10:04.007Z,21.20
2023-04-25T13:13:30.927Z,4.20
2023-04-25T13:16:58.448Z,3.60
2023-04-25T13:20:26.208Z,1.10
2023-04-25T13:23:53.827Z,2.40
2023-04-25T13:27:21.558Z,1.30
2023-04-25T13:30:49.078Z,28.30
2023-04-25T13:34:16.192Z,27.60
2023-04-25T13:37:43.554Z,22.10
2023-04-25T13:41:12.276Z,16.60
2023-04-25T13:44:39.430Z,4.40
2023-04-25T13:48:07.698Z,3.20
2023-04-25T13:51:34.828Z,3.80
2023-04-25T13:55:04.384Z,6.50
2023-04-25T13:58:31.785Z,4.60
2023-04-25T14:01:58.860Z,5.80
2023-04-25T14:05:25.826Z,6.50
2023-04-25T14:08:52.885Z,4.80
2023-04-25T14:12:20.048Z,7.80
2023-04-25T14:15:47.026Z,6.90
2023-04-25T14:19:14.397Z,5.10
2023-04-25T14:22:44.831Z,7.00
2023-04-25T14:26:13.693Z,6.20
2023-04-25T14:29:41.272Z,5.90
2023-04-25T14:33:08.432Z,5.10
2023-04-25T14:36:36.168Z,4.80
2023-04-25T14:40:03.710Z,4.60
2023-04-25T14:43:30.632Z,5.40
2023-04-25T14:46:57.653Z,6.50
2023-04-25T14:50:25.162Z,10.30
2023-04-25T14:53:52.682Z,10.90
2023-04-25T14:57:19.771Z,5.60
2023-04-25T15:00:46.971Z,8.00
2023-04-25T15:04:15.423Z,13.50
2023-04-25T15:07:43.106Z,14.30
2023-04-25T15:11:10.280Z,10.50
2023-04-25T15:14:37.759Z,9.30
2023-04-25T15:18:05.411Z,7.50
2023-04-25T15:21:33.402Z,8.50
2023-04-25T15:25:00.504Z,13.10
2023-04-25T15:28:27.713Z,8.90
2023-04-25T15:31:55.229Z,13.80
2023-04-25T15:35:22.090Z,13.00
2023-04-25T15:38:48.831Z,17.40
2023-04-25T15:42:15.944Z,11.20
2023-04-25T15:45:43.040Z,10.60
2023-04-25T15:49:10.178Z,12.40
2023-04-25T15:52:38.057Z,8.50
2023-04-25T15:56:05.932Z,13.20
2023-04-25T15:59:32.836Z,28.20
2023-04-25T16:02:59.875Z,289.10
2023-04-25T16:06:27.790Z,251.50
2023-04-25T16:09:54.580Z,288.90
2023-04-25T16:13:21.479Z,243.70
2023-04-25T16:16:48.651Z,209.50
2023-04-25T16:20:16.414Z,279.90
2023-04-25T16:23:43.706Z,370.00
2023-04-25T16:27:10.853Z,474.00
2023-04-25T16:30:37.686Z,384.60
2023-04-25T16:34:05.188Z,306.90
2023-04-25T16:37:32.173Z,235.00
2023-04-25T16:40:59.228Z,41.20
2023-04-25T16:44:26.220Z,28.50
2023-04-25T16:47:53.407Z,18.00
2023-04-25T16:51:20.748Z,33.00
2023-04-25T16:54:47.935Z,12.50
2023-04-25T16:58:15.016Z,13.50
2023-04-25T17:01:41.969Z,12.60
2023-04-25T17:05:10.724Z,13.00
2023-04-25T17:08:37.824Z,12.40
2023-04-25T17:12:04.962Z,15.00
2023-04-25T17:15:34.178Z,21.70
2023-04-25T17:19:01.218Z,14.10
2023-04-25T17:22:28.413Z,20.40
2023-04-25T17:25:55.523Z,19.00
2023-04-25T17:29:23.848Z,18.70
2023-04-25T17:32:50.697Z,15.90
2023-04-25T17:36:18.175Z,16.40
2023-04-25T17:39:45.850Z,16.90
2023-04-25T17:43:12.948Z,18.90
2023-04-25T17:46:40.163Z,14.40
2023-04-25T17:50:09.009Z,15.90
2023-04-25T17:53:36.649Z,17.00
2023-04-25T17:57:04.819Z,17.00
2023-04-25T18:00:32.604Z,19.40
2023-04-25T18:03:59.798Z,16.20
2023-04-25T18:07:26.815Z,14.00
2023-04-25T18:10:54.529Z,16.60
2023-04-25T18:14:22.303Z,18.30
2023-04-25T18:17:49.928Z,14.90
2023-04-25T18:21:17.712Z,15.80
2023-04-25T18:24:46.458Z,14.80
2023-04-25T18:28:13.961Z,16.30
2023-04-25T18:31:42.040Z,23.20
2023-04-25T18:35:12.362Z,17.90
2023-04-25T18:38:39.875Z,16.40
2023-04-25T18:42:07.299Z,11.30
2023-04-25T18:45:34.726Z,18.50
2023-04-25T18:49:05.068Z,12.40
2023-04-25T18:52:33.252Z,16.70
2023-04-25T18:56:01.201Z,16.70
2023-04-25T18:59:28.609Z,13.70
2023-04-25T19:02:58.540Z,15.30
2023-04-25T19:06:30.104Z,15.20
2023-04-25T19:09:57.915Z,21.70
2023-04-25T19:13:24.959Z,19.90
2023-04-25T19:16:52.345Z,19.80
2023-04-25T19:20:21.113Z,23.10
2023-04-25T19:23:48.400Z,15.80
2023-04-25T19:27:15.612Z,22.90
2023-04-25T19:30:43.047Z,17.60
2023-04-25T19:34:11.405Z,15.30
2023-04-25T19:37:39.176Z,12.20
2023-04-25T19:41:06.570Z,17.20
2023-04-25T19:44:33.725Z,15.70
2023-04-25T19:48:01.269Z,15.30
2023-04-25T19:51:28.550Z,14.70
2023-04-25T19:54:58.295Z,11.60
2023-04-25T19:58:25.913Z,16.40
2023-04-25T20:01:52.812Z,17.40
2023-04-25T20:05:20.390Z,17.10
2023-04-25T20:08:48.062Z,12.80
2023-04-25T20:12:18.170Z,13.50
2023-04-25T20:15:45.186Z,19.10
2023-04-25T20:19:12.264Z,19.20
2023-04-25T20:22:40.535Z,17.30
2023-04-25T20:26:07.828Z,24.60
2023-04-25T20:29:34.846Z,22.30
2023-04-25T20:33:04.136Z,25.20
2023-04-25T20:36:32.218Z,19.60
2023-04-25T20:39:59.477Z,26.10
2023-04-25T20:43:27.200Z,23.40
2023-04-25T20:46:54.411Z,57.40
2023-04-25T20:50:21.489Z,63.30
2023-04-25T20:53:48.670Z,66.50
2023-04-25T20:57:15.908Z,48.20
2023-04-25T21:00:42.945Z,95.40
2023-04-25T21:04:10.345Z,54.40
2023-04-25T21:07:38.303Z,42.70
2023-04-25T21:11:05.265Z,29.90
2023-04-25T21:14:32.320Z,42.40
2023-04-25T21:17:59.347Z,58.70
2023-04-25T21:21:26.458Z,50.30
2023-04-25T21:24:54.318Z,35.40
2023-04-25T21:28:21.555Z,40.90
2023-04-25T21:31:48.975Z,156.80
2023-04-25T21:35:15.906Z,183.80
2023-04-25T21:38:42.864Z,100.10
2023-04-25T21:42:10.882Z,54.60
2023-04-25T21:45:51.328Z,29.00
2023-04-25T21:49:29.392Z,24.30
2023-04-25T21:52:58.966Z,20.90
2023-04-25T21:59:51.646Z,16.10
2023-04-25T22:03:20.249Z,14.80
2023-04-25T22:06:47.662Z,13.40
2023-04-25T22:10:15.325Z,18.20
2023-04-25T22:13:42.383Z,19.40
2023-04-25T22:17:10.046Z,17.90
2023-04-25T22:20:38.806Z,14.80
2023-04-25T22:24:06.284Z,10.70
2023-04-25T22:27:34.219Z,13.90
2023-04-25T22:31:01.270Z,15.20
2023-04-25T22:34:28.492Z,16.10
2023-04-25T22:37:55.218Z,12.90
2023-04-25T22:41:23.759Z,14.60
2023-04-25T22:44:52.146Z,10.90
2023-04-25T22:48:18.944Z,15.60
2023-04-25T22:51:45.818Z,16.30
2023-04-25T22:55:13.203Z,21.30
2023-04-25T22:58:40.870Z,26.60
2023-04-25T23:02:07.755Z,51.60
2023-04-25T23:05:34.828Z,47.20
2023-04-25T23:09:01.801Z,56.50
2023-04-25T23:12:28.791Z,57.00
2023-04-25T23:15:55.569Z,62.20
2023-04-25T23:19:22.941Z,73.90
2023-04-25T23:22:50.480Z,76.80
2023-04-25T23:26:17.484Z,71.30
2023-04-25T23:29:44.430Z,56.60
2023-04-25T23:33:11.712Z,67.20
2023-04-25T23:36:39.280Z,90.20
2023-04-25T23:40:10.104Z,84.10
2023-04-25T23:43:37.099Z,65.30
2023-04-25T23:47:04.170Z,61.40
2023-04-25T23:50:32.062Z,59.20
2023-04-25T23:53:58.962Z,65.40
2023-04-25T23:57:26.057Z,53.30
